createdAt,value
2022-11-08T00:02:46.444Z,70.50
2022-11-08T00:06:07.312Z,71.14
2022-11-08T00:09:34.472Z,71.15
2022-11-08T00:16:41.244Z,70.60
2022-11-08T00:20:10.261Z,71.05
2022-11-08T00:23:18.918Z,70.46
2022-11-08T00:26:52.160Z,70.56
2022-11-08T00:29:39.145Z,71.05
2022-11-08T00:32:26.947Z,70.95
2022-11-08T00:35:14.108Z,70.67
2022-11-08T00:38:02.677Z,70.28
2022-11-08T00:40:58.418Z,70.53
2022-11-08T00:43:45.704Z,70.16
2022-11-08T00:46:32.681Z,70.29
2022-11-08T00:49:20.347Z,70.73
2022-11-08T00:52:07.750Z,70.35
2022-11-08T00:54:57.971Z,70.70
2022-11-08T00:58:00.826Z,70.15
2022-11-08T01:00:50.986Z,70.73
2022-11-08T01:03:38.225Z,70.68
2022-11-08T01:06:25.862Z,69.79
2022-11-08T01:09:13.221Z,70.20
2022-11-08T01:12:00.993Z,70.57
2022-11-08T01:14:48.179Z,70.20
2022-11-08T01:17:35.485Z,70.45
2022-11-08T01:20:31.078Z,70.62
2022-11-08T01:31:58.859Z,69.86
2022-11-08T01:35:01.151Z,70.05
2022-11-08T01:41:54.382Z,70.31
2022-11-08T01:56:42.535Z,69.84
2022-11-08T02:07:49.456Z,69.80
2022-11-08T02:11:31.307Z,69.86
2022-11-08T02:14:25.698Z,69.89
2022-11-08T02:17:30.274Z,70.29
2022-11-08T02:43:07.377Z,70.15
2022-11-08T02:46:36.267Z,69.61
2022-11-08T02:49:55.673Z,69.53
2022-11-08T02:56:45.651Z,69.61
2022-11-08T03:00:28.956Z,69.47
2022-11-08T03:03:51.456Z,69.77
2022-11-08T03:10:35.439Z,69.58
2022-11-08T03:13:38.620Z,69.50
2022-11-08T03:17:08.746Z,69.32
2022-11-08T03:38:36.629Z,69.34
2022-11-08T03:48:52.018Z,69.13
2022-11-08T03:53:06.264Z,69.02
2022-11-08T03:59:39.763Z,69.40
2022-11-08T04:09:47.866Z,68.99
2022-11-08T04:13:47.127Z,68.94
2022-11-08T04:17:38.026Z,69.10
2022-11-08T04:23:58.784Z,68.95
2022-11-08T04:26:45.767Z,69.06
2022-11-08T04:29:32.659Z,68.82
2022-11-08T04:32:19.492Z,69.37
2022-11-08T04:35:06.409Z,69.00
2022-11-08T04:37:57.722Z,69.09
2022-11-08T04:40:45.234Z,69.19
2022-11-08T04:43:32.908Z,69.21
2022-11-08T04:46:21.648Z,69.18
2022-11-08T04:49:08.525Z,69.07
2022-11-08T04:51:55.343Z,69.28
2022-11-08T04:54:44.715Z,69.27
2022-11-08T04:57:31.532Z,69.19
2022-11-08T05:00:18.620Z,69.15
2022-11-08T05:07:21.210Z,69.47
2022-11-08T05:10:37.106Z,69.25
2022-11-08T05:13:37.535Z,68.92
2022-11-08T05:16:41.269Z,69.18
2022-11-08T05:23:36.228Z,69.17
2022-11-08T05:26:55.126Z,69.05
2022-11-08T05:29:49.125Z,69.12
2022-11-08T05:32:58.826Z,69.22
2022-11-08T05:36:07.025Z,69.29
2022-11-08T05:39:28.206Z,69.08
2022-11-08T05:42:58.100Z,69.38
2022-11-08T05:46:14.645Z,69.60
2022-11-08T05:49:01.629Z,69.07
2022-11-08T05:51:48.566Z,69.53
2022-11-08T05:54:37.973Z,69.03
2022-11-08T05:57:24.893Z,69.22
2022-11-08T06:00:12.775Z,69.43
2022-11-08T06:03:23.645Z,69.43
2022-11-08T06:06:15.269Z,69.64
2022-11-08T06:09:02.302Z,69.46
2022-11-08T06:11:49.025Z,69.62
2022-11-08T06:14:35.787Z,69.69
2022-11-08T06:17:26.171Z,69.30
2022-11-08T06:20:26.648Z,69.59
2022-11-08T06:23:42.328Z,69.55
2022-11-08T06:26:53.050Z,69.80
2022-11-08T06:29:42.391Z,69.41
2022-11-08T06:32:29.194Z,69.51
2022-11-08T06:35:16.116Z,69.99
2022-11-08T06:38:06.904Z,70.19
2022-11-08T06:40:59.782Z,70.25
2022-11-08T06:43:46.612Z,70.47
2022-11-08T06:46:33.372Z,70.74
2022-11-08T06:49:20.128Z,70.47
2022-11-08T06:52:07.299Z,70.29
2022-11-08T06:54:54.189Z,70.31
2022-11-08T06:57:40.945Z,70.35
2022-11-08T07:00:28.163Z,70.25
2022-11-08T07:03:16.112Z,70.20
2022-11-08T07:06:04.471Z,70.45
2022-11-08T07:08:54.261Z,70.38
2022-11-08T07:11:41.107Z,70.06
2022-11-08T07:14:27.902Z,70.30
2022-11-08T07:17:16.031Z,70.46
2022-11-08T07:20:02.809Z,70.39
2022-11-08T07:22:49.544Z,70.14
2022-11-08T07:25:36.725Z,70.20
2022-11-08T07:28:23.508Z,70.43
2022-11-08T07:31:10.772Z,70.38
2022-11-08T07:33:57.539Z,70.40
2022-11-08T07:36:44.408Z,70.45
2022-11-08T07:39:31.220Z,70.11
2022-11-08T07:42:17.980Z,70.18
2022-11-08T07:45:11.541Z,69.98
2022-11-08T07:47:59.865Z,70.41
2022-11-08T07:50:46.767Z,70.49
2022-11-08T07:53:33.536Z,70.06
2022-11-08T07:56:23.349Z,70.43
2022-11-08T07:59:10.112Z,70.39
2022-11-08T08:01:56.910Z,70.58
2022-11-08T08:04:43.664Z,70.33
2022-11-08T08:07:30.418Z,70.55
2022-11-08T08:10:17.265Z,70.39
2022-11-08T08:13:04.254Z,70.62
2022-11-08T08:15:51.118Z,70.53
2022-11-08T08:18:37.954Z,70.51
2022-11-08T08:21:24.759Z,70.65
2022-11-08T08:24:16.783Z,70.63
2022-11-08T08:27:07.013Z,70.66
2022-11-08T08:29:56.141Z,70.74
2022-11-08T08:32:43.515Z,71.06
2022-11-08T08:35:30.663Z,70.98
2022-11-08T08:38:17.659Z,71.06
2022-11-08T08:41:04.542Z,71.08
2022-11-08T08:43:51.362Z,70.94
2022-11-08T08:46:38.120Z,70.88
2022-11-08T08:49:24.904Z,71.26
2022-11-08T08:52:11.743Z,70.87
2022-11-08T08:54:58.496Z,71.24
2022-11-08T08:57:46.507Z,71.54
2022-11-08T09:03:40.162Z,71.85
2022-11-08T09:06:26.921Z,71.75
2022-11-08T09:09:14.234Z,71.99
2022-11-08T09:12:01.455Z,72.16
2022-11-08T09:14:48.263Z,72.20
2022-11-08T09:17:35.054Z,72.31
2022-11-08T09:20:22.397Z,72.34
2022-11-08T09:23:10.939Z,72.55
2022-11-08T09:26:02.756Z,72.52
2022-11-08T09:28:49.485Z,72.71
2022-11-08T09:31:36.321Z,72.90
2022-11-08T09:34:23.215Z,73.11
2022-11-08T09:37:09.972Z,73.30
2022-11-08T09:39:56.734Z,73.44
2022-11-08T09:42:50.857Z,73.42
2022-11-08T09:45:46.532Z,73.61
2022-11-08T09:48:39.184Z,73.43
2022-11-08T09:51:26.002Z,73.46
2022-11-08T09:54:23.981Z,73.46
2022-11-08T09:57:18.017Z,73.96
2022-11-08T10:00:06.197Z,73.92
2022-11-08T10:02:52.990Z,73.87
2022-11-08T10:05:42.366Z,73.88
2022-11-08T10:08:33.727Z,73.94
2022-11-08T10:11:38.713Z,74.36
2022-11-08T10:14:53.924Z,74.25
2022-11-08T10:18:07.493Z,74.27
2022-11-08T10:21:00.163Z,74.25
2022-11-08T10:24:18.203Z,74.49
2022-11-08T10:27:13.520Z,74.26
2022-11-08T10:30:05.179Z,74.32
2022-11-08T10:32:56.711Z,74.49
2022-11-08T10:35:47.952Z,74.17
2022-11-08T10:38:39.817Z,74.56
2022-11-08T10:41:38.711Z,73.96
2022-11-08T10:44:28.173Z,73.96
2022-11-08T10:47:24.678Z,76.19
2022-11-08T10:50:29.497Z,77.32
2022-11-08T10:53:32.054Z,77.08
2022-11-08T10:56:19.475Z,76.16
2022-11-08T10:59:29.848Z,76.30
2022-11-08T11:02:22.535Z,75.22
2022-11-08T11:05:18.461Z,75.30
2022-11-08T11:08:07.934Z,75.36
2022-11-08T11:10:55.300Z,74.42
2022-11-08T11:13:42.062Z,74.69
2022-11-08T11:16:28.863Z,74.55
2022-11-08T11:19:15.677Z,73.98
2022-11-08T11:22:05.944Z,73.74
2022-11-08T11:24:53.143Z,73.83
2022-11-08T11:27:41.444Z,73.72
2022-11-08T11:30:33.564Z,74.13
2022-11-08T11:33:26.414Z,73.18
2022-11-08T11:36:20.481Z,73.12
2022-11-08T11:39:12.262Z,72.95
2022-11-08T11:42:49.627Z,73.65
2022-11-08T11:46:03.689Z,72.67
2022-11-08T11:48:58.194Z,72.97
2022-11-08T11:51:45.098Z,72.58
2022-11-08T11:54:32.561Z,72.74
2022-11-08T11:57:32.756Z,72.19
2022-11-08T12:00:19.546Z,72.29
2022-11-08T12:03:19.133Z,72.49
2022-11-08T12:06:09.410Z,72.47
2022-11-08T12:09:14.237Z,71.90
2022-11-08T12:12:32.953Z,71.84
2022-11-08T12:15:28.369Z,71.60
2022-11-08T12:18:40.940Z,71.44
2022-11-08T12:21:50.296Z,71.70
2022-11-08T12:25:20.082Z,71.73
2022-11-08T12:28:23.455Z,71.68
2022-11-08T12:31:30.330Z,71.41
2022-11-08T12:34:26.468Z,71.75
2022-11-08T12:37:32.460Z,71.74
2022-11-08T12:40:38.765Z,71.57
2022-11-08T12:44:10.412Z,71.28
2022-11-08T12:47:05.729Z,71.55
2022-11-08T12:50:07.631Z,71.52
2022-11-08T12:53:21.484Z,71.48
2022-11-08T12:56:25.601Z,71.77
2022-11-08T12:59:19.805Z,71.68
2022-11-08T13:02:17.183Z,71.92
2022-11-08T13:05:18.174Z,71.81
2022-11-08T13:08:16.161Z,71.46
2022-11-08T13:11:08.137Z,71.47
2022-11-08T13:13:56.197Z,71.94
2022-11-08T13:17:14.074Z,71.62
2022-11-08T13:20:05.705Z,71.48
2022-11-08T13:23:00.541Z,71.93
2022-11-08T13:25:47.414Z,71.58
2022-11-08T13:28:39.559Z,71.57
2022-11-08T13:31:59.022Z,71.78
2022-11-08T13:34:46.628Z,71.65
2022-11-08T13:38:28.597Z,71.76
2022-11-08T13:41:20.598Z,71.59
2022-11-08T13:44:46.030Z,71.65
2022-11-08T13:47:32.838Z,71.94
2022-11-08T13:50:28.889Z,71.51
2022-11-08T13:53:18.561Z,72.11
2022-11-08T13:56:05.358Z,72.21
2022-11-08T13:58:52.255Z,71.76
2022-11-08T14:01:45.052Z,71.85
2022-11-08T14:04:35.435Z,71.69
2022-11-08T14:07:32.632Z,71.55
2022-11-08T14:10:32.793Z,71.13
2022-11-08T14:13:39.233Z,70.96
2022-11-08T14:17:05.811Z,70.86
2022-11-08T14:27:49.134Z,70.65
2022-11-08T14:30:46.754Z,70.95
2022-11-08T14:37:15.069Z,70.61
2022-11-08T14:59:56.259Z,71.02
2022-11-08T15:03:20.331Z,71.20
2022-11-08T15:10:49.152Z,70.72
2022-11-08T15:14:06.198Z,71.47
2022-11-08T15:17:27.553Z,70.99
2022-11-08T15:21:28.019Z,71.23
2022-11-08T15:27:55.341Z,70.45
2022-11-08T15:30:56.015Z,70.50
2022-11-08T15:34:39.643Z,70.05
2022-11-08T15:41:34.721Z,70.20
2022-11-08T15:44:49.970Z,69.51
2022-11-08T15:48:18.302Z,69.67
2022-11-08T15:52:06.057Z,69.36
2022-11-08T15:58:18.538Z,69.46
2022-11-08T16:04:36.473Z,68.85
2022-11-08T16:07:35.263Z,69.59
2022-11-08T16:18:24.945Z,69.07
2022-11-08T16:21:54.331Z,68.78
2022-11-08T16:32:05.813Z,69.03
2022-11-08T16:42:01.322Z,68.65
2022-11-08T16:46:03.717Z,69.12
2022-11-08T16:52:00.970Z,68.46
2022-11-08T16:55:17.580Z,68.81
2022-11-08T16:58:45.620Z,68.83
2022-11-08T17:02:53.568Z,68.77
2022-11-08T17:06:54.695Z,68.26
2022-11-08T17:10:11.959Z,69.04
2022-11-08T17:13:57.570Z,68.63
2022-11-08T17:16:44.331Z,68.70
2022-11-08T17:19:31.101Z,69.01
2022-11-08T17:22:17.859Z,68.66
2022-11-08T17:25:06.411Z,68.43
2022-11-08T17:27:53.252Z,68.51
2022-11-08T17:30:44.206Z,68.49
2022-11-08T17:33:31.244Z,69.14
2022-11-08T17:36:18.023Z,69.04
2022-11-08T17:39:06.020Z,68.60
2022-11-08T18:47:53.066Z,68.49
2022-11-08T19:48:03.025Z,68.56
2022-11-08T22:44:51.101Z,69.20
2022-11-08T22:50:09.534Z,69.35
2022-11-08T22:52:55.238Z,69.68
2022-11-08T22:57:05.385Z,69.27
2022-11-08T23:08:44.246Z,69.52
2022-11-08T23:39:37.302Z,69.88
2022-11-08T23:46:52.356Z,69.68
